createdAt,value
2023-06-19T00:04:28.928Z,5.40
2023-06-19T00:14:28.893Z,5.40
2023-06-19T00:24:28.890Z,5.80
2023-06-19T00:34:28.891Z,5.60
2023-06-19T00:44:28.910Z,5.40
2023-06-19T00:54:28.903Z,5.40
2023-06-19T01:04:28.938Z,5.50
2023-06-19T01:14:28.935Z,5.50
2023-06-19T01:24:28.999Z,6.20
2023-06-19T01:34:28.975Z,6.10
2023-06-19T01:44:29.035Z,6.50
2023-06-19T01:54:29.028Z,6.80
2023-06-19T02:04:29.005Z,6.70
2023-06-19T02:14:28.997Z,6.50
2023-06-19T02:24:29.095Z,5.60
2023-06-19T02:34:29.044Z,6.40
2023-06-19T02:44:29.082Z,6.30
2023-06-19T02:54:29.083Z,6.40
2023-06-19T03:04:29.705Z,6.60
2023-06-19T03:14:29.170Z,6.50
2023-06-19T03:24:29.216Z,6.60
2023-06-19T03:34:29.183Z,5.90
2023-06-19T03:44:29.226Z,6.00
2023-06-19T03:54:29.236Z,6.30
2023-06-19T04:04:29.241Z,6.30
2023-06-19T04:14:29.262Z,6.85
2023-06-19T04:24:29.373Z,6.30
2023-06-19T04:34:29.276Z,5.70
2023-06-19T04:44:29.255Z,6.00
2023-06-19T04:54:29.240Z,5.80
2023-06-19T05:04:29.246Z,6.10
2023-06-19T05:14:29.253Z,5.80
2023-06-19T05:24:29.331Z,6.20
2023-06-19T05:34:29.507Z,5.80
2023-06-19T05:44:29.320Z,6.90
2023-06-19T05:54:29.395Z,6.05
2023-06-19T06:04:29.411Z,6.80
2023-06-19T06:14:29.403Z,6.50
2023-06-19T06:24:29.431Z,5.80
2023-06-19T06:34:29.391Z,5.20
2023-06-19T06:44:29.448Z,4.70
2023-06-19T06:54:29.496Z,4.90
2023-06-19T07:04:29.520Z,5.00
2023-06-19T07:14:29.521Z,5.70
2023-06-19T07:24:29.560Z,6.10
2023-06-19T07:34:31.131Z,5.10
2023-06-19T07:44:29.555Z,6.30
2023-06-19T07:54:29.734Z,6.10
2023-06-19T08:04:29.638Z,6.20
2023-06-19T08:14:29.737Z,6.20
2023-06-19T08:24:29.764Z,7.40
2023-06-19T08:34:29.743Z,6.10
2023-06-19T08:44:29.745Z,6.20
2023-06-19T08:54:29.872Z,6.10
2023-06-19T09:04:29.882Z,6.10
2023-06-19T09:14:29.910Z,6.10
2023-06-19T09:24:29.954Z,6.60
2023-06-19T09:34:29.929Z,6.30
2023-06-19T09:44:29.942Z,6.20
2023-06-19T09:54:30.291Z,5.90
2023-06-19T10:04:29.963Z,5.80
2023-06-19T10:14:29.956Z,5.70
2023-06-19T10:24:29.981Z,5.50
2023-06-19T10:34:29.981Z,5.80
2023-06-19T10:44:30.002Z,6.20
2023-06-19T10:54:30.009Z,5.90
2023-06-19T11:04:30.086Z,6.70
2023-06-19T11:14:30.048Z,6.90
2023-06-19T11:24:30.010Z,7.00
2023-06-19T11:34:30.089Z,6.10
2023-06-19T11:44:30.077Z,7.70
2023-06-19T11:54:30.079Z,7.00
2023-06-19T12:04:30.309Z,7.30
2023-06-19T12:14:30.096Z,7.20
2023-06-19T12:24:30.096Z,7.00
2023-06-19T12:34:31.465Z,7.80
2023-06-19T12:44:30.076Z,6.80
2023-06-19T12:54:30.135Z,6.60
2023-06-19T13:04:30.102Z,7.50
2023-06-19T13:14:30.127Z,7.60
2023-06-19T13:24:30.253Z,6.90
2023-06-19T13:34:30.157Z,7.70
2023-06-19T13:44:30.170Z,6.90
2023-06-19T13:54:30.189Z,7.20
2023-06-19T14:04:30.161Z,6.70
2023-06-19T14:14:30.197Z,7.10
2023-06-19T14:24:30.204Z,6.70
2023-06-19T14:34:30.283Z,6.70
2023-06-19T14:44:30.278Z,6.60
2023-06-19T14:54:30.231Z,6.40
2023-06-19T15:04:30.272Z,6.70
2023-06-19T15:14:30.277Z,13.70
2023-06-19T15:24:30.310Z,10.10
2023-06-19T15:34:30.301Z,8.50
2023-06-19T15:44:30.381Z,7.30
2023-06-19T15:54:30.391Z,6.90
2023-06-19T16:04:30.379Z,6.40
2023-06-19T16:14:30.413Z,6.50
2023-06-19T16:24:30.519Z,6.70
2023-06-19T16:34:30.484Z,6.50
2023-06-19T16:44:30.508Z,6.50
2023-06-19T16:54:30.576Z,6.30
2023-06-19T17:04:30.580Z,6.60
2023-06-19T17:14:30.626Z,6.70
2023-06-19T17:24:30.633Z,6.60
2023-06-19T17:34:30.633Z,6.30
2023-06-19T17:44:30.607Z,7.00
2023-06-19T17:54:30.633Z,7.30
2023-06-19T18:04:30.630Z,7.10
2023-06-19T18:14:30.656Z,9.70
2023-06-19T18:24:30.665Z,11.10
2023-06-19T18:34:30.707Z,12.10
2023-06-19T18:44:30.699Z,13.50
2023-06-19T18:54:30.688Z,13.00
2023-06-19T19:04:30.700Z,12.80
2023-06-19T19:14:30.729Z,9.70
2023-06-19T19:24:30.738Z,8.30
2023-06-19T19:34:30.805Z,7.50
2023-06-19T19:44:30.817Z,7.40
2023-06-19T19:54:30.880Z,7.30
2023-06-19T20:04:30.876Z,8.10
2023-06-19T20:14:30.932Z,8.30
2023-06-19T20:24:30.985Z,8.70
2023-06-19T20:34:30.957Z,11.00
2023-06-19T20:44:31.003Z,8.30
2023-06-19T20:54:30.964Z,8.10
2023-06-19T21:04:30.954Z,7.90
2023-06-19T21:14:31.063Z,8.50
2023-06-19T21:24:31.091Z,8.00
2023-06-19T21:34:31.078Z,9.70
2023-06-19T21:44:31.082Z,9.80
2023-06-19T21:54:31.147Z,8.70
2023-06-19T22:04:31.172Z,9.00
2023-06-19T22:14:31.179Z,11.20
2023-06-19T22:24:31.216Z,9.00
2023-06-19T22:34:31.218Z,9.20
2023-06-19T22:44:31.225Z,10.20
2023-06-19T22:54:31.236Z,9.40
2023-06-19T23:04:31.235Z,9.20
2023-06-19T23:14:31.225Z,10.60
2023-06-19T23:24:31.340Z,10.60
2023-06-19T23:34:31.270Z,10.50
2023-06-19T23:44:31.324Z,11.60
2023-06-19T23:54:31.327Z,11.00
